Time;durP1;ratioP1;P1;durP2;ratioP2;P2;SDS_P1;SDS_P2;PMS_P1;PMS_P2;Temp;Humidity;BMP_temperature;BMP_pressure;BME280_temperature;BME280_humidity;BME280_pressure;Samples;Min_cycle;Max_cycle;Signal;HPM_P1;HPM_P2
2022/01/07 00:02:03;;;;;;;;;;;;;;;;;;5033530;28;19912;-78
2022/01/07 00:04:37;;;;;;;;;;;;;;;;;;5033348;28;19924;-78
2022/01/07 00:07:04;;;;;;;;;;;;;;;;;;5018039;28;19917;-78
2022/01/07 00:09:29;;;;;;;;;;;;;;;;;;5032987;28;19940;-78
2022/01/07 00:11:57;;;;;;;;;;;;;;;;;;5034253;28;19967;-79
2022/01/07 00:14:22;;;;;;;;;;;;;;;;;;5034187;28;19913;-77
2022/01/07 00:16:47;;;;;;;;;;;;;;;;;;5033777;28;19996;-78
2022/01/07 00:19:14;;;;;;;;;;;;;;;;;;5030736;28;19998;-78
2022/01/07 00:21:39;;;;;;;;;;;;;;;;;;5034361;28;19917;-78
2022/01/07 00:24:05;;;;;;;;;;;;;;;;;;5033943;28;19935;-79
2022/01/07 00:26:30;;;;;;;;;;;;;;;;;;5034354;28;20289;-78
2022/01/07 00:28:55;;;;;;;;;;;;;;;;;;5028792;28;19921;-79
2022/01/07 00:31:20;;;;;;;;;;;;;;;;;;5033886;28;19924;-79
2022/01/07 00:33:48;;;;;;;;;;;;;;;;;;5033416;28;20285;-79
2022/01/07 00:36:13;;;;;;;;;;;;;;;;;;5033720;28;19925;-78
2022/01/07 00:38:39;;;;;;;;;;;;;;;;;;5033662;28;19952;-80
2022/01/07 00:41:05;;;;;;;;;;;;;;;;;;5033105;28;19913;-79
2022/01/07 00:43:30;;;;;;;;;;;;;;;;;;5033736;28;19921;-81
2022/01/07 00:45:55;;;;;;;;;;;;;;;;;;5013115;28;20434;-79
2022/01/07 00:48:20;;;;;;;;;;;;;;;;;;5021896;28;19917;-79
2022/01/07 00:50:46;;;;;;;;;;;;;;;;;;5033512;28;20362;-79
2022/01/07 00:53:11;;;;;;;;;;;;;;;;;;5032361;28;19928;-79
2022/01/07 00:55:40;;;;;;;;;;;;;;;;;;5029432;28;20346;-78
2022/01/07 00:58:07;;;;;;;;;;;;;;;;;;5029305;28;20286;-78
2022/01/07 01:00:33;;;;;;;;;;;;;;;;;;5035473;28;19925;-78
2022/01/07 01:03:00;;;;;;;;;;;;;;;;;;5039208;28;19913;-78
2022/01/07 01:05:26;;;;;;;;;;;;;;;;;;5036539;28;19993;-78
2022/01/07 01:07:51;;;;;;;;;;;;;;;;;;5038620;28;19953;-79
2022/01/07 01:10:18;;;;;;;;;;;;;;;;;;5037391;28;19917;-79
2022/01/07 01:12:44;;;;;;;;;;;;;;;;;;5037634;28;19913;-79
2022/01/07 01:15:13;;;;;;;;;;;;;;;;;;5024128;28;19917;-79
2022/01/07 01:17:41;;;;;;;;;;;;;;;;;;5026304;28;19925;-81
2022/01/07 01:20:07;;;;;;;;;;;;;;;;;;5021320;28;19933;-79
2022/01/07 01:22:32;;;;;;;;;;;;;;;;;;5017055;28;19918;-79
2022/01/07 01:24:58;;;;;;;;;;;;;;;;;;5044527;28;19948;-80
2022/01/07 01:27:23;;;;;;;;;;;;;;;;;;5037879;28;19916;-80
2022/01/07 01:29:48;;;;;;;;;;;;;;;;;;5037509;28;20007;-79
2022/01/07 01:32:16;;;;;;;;;;;;;;;;;;5037772;28;19963;-79
2022/01/07 01:34:43;;;;;;;;;;;;;;;;;;5037706;28;19987;-79
2022/01/07 01:37:09;;;;;;;;;;;;;;;;;;5035005;28;19921;-79
2022/01/07 01:39:34;;;;;;;;;;;;;;;;;;5038280;28;19917;-81
2022/01/07 01:41:59;;;;;;;;;;;;;;;;;;5039641;28;19912;-85
2022/01/07 01:44:25;;;;;;;;;;;;;;;;;;5038001;28;19948;-80
2022/01/07 01:46:50;;;;;;;;;;;;;;;;;;5036742;28;19917;-79
2022/01/07 01:49:15;;;;;;;;;;;;;;;;;;5037640;28;19963;-81
2022/01/07 01:51:47;;;;;;;;;;;;;;;;;;5038180;28;19901;-79
2022/01/07 01:54:12;;;;;;;;;;;;;;;;;;5036231;28;19971;-80
2022/01/07 01:56:37;;;;;;;;;;;;;;;;;;5036395;28;20003;-81
2022/01/07 01:59:07;;;;;;;;;;;;;;;;;;5037243;28;19921;-78
2022/01/07 02:01:35;;;;;;;;;;;;;;;;;;5035822;28;19913;-78
2022/01/07 02:04:01;;;;;;;;;;;;;;;;;;5037302;28;19952;-79
2022/01/07 02:06:26;;;;;;;;;;;;;;;;;;5033389;28;20354;-85
2022/01/07 02:08:51;;;;;;;;;;;;;;;;;;5018000;28;20266;-79
2022/01/07 02:11:17;;;;;;;;;;;;;;;;;;5016446;28;20079;-83
2022/01/07 02:13:42;;;;;;;;;;;;;;;;;;5017982;28;19913;-80
2022/01/07 02:16:07;;;;;;;;;;;;;;;;;;5037098;28;19921;-79
2022/01/07 02:18:33;;;;;;;;;;;;;;;;;;5052813;28;19917;-81
2022/01/07 02:20:58;;;;;;;;;;;;;;;;;;5036627;28;20004;-82
2022/01/07 02:23:24;;;;;;;;;;;;;;;;;;5036776;28;19928;-83
2022/01/07 02:25:49;;;;;;;;;;;;;;;;;;5035520;28;19928;-80
2022/01/07 02:28:14;;;;;;;;;;;;;;;;;;5036764;28;20011;-80
2022/01/07 02:30:40;;;;;;;;;;;;;;;;;;5035704;28;19970;-80
2022/01/07 02:33:05;;;;;;;;;;;;;;;;;;5035620;28;19905;-80
2022/01/07 02:35:31;;;;;;;;;;;;;;;;;;5036380;28;19917;-81
2022/01/07 02:37:57;;;;;;;;;;;;;;;;;;5036757;28;19919;-80
2022/01/07 02:40:22;;;;;;;;;;;;;;;;;;5036456;28;19936;-80
2022/01/07 02:42:47;;;;;;;;;;;;;;;;;;5036445;28;19932;-80
2022/01/07 02:45:13;;;;;;;;;;;;;;;;;;5036433;28;19917;-80
2022/01/07 02:48:02;;;;;;;;;;;;;;;;;;5036456;28;19913;-80
2022/01/07 02:50:25;;;;;;;;;;;;;;;;;;5035040;28;19967;-78
2022/01/07 02:52:51;;;;;;;;;;;;;;;;;;5035040;28;19917;-79
2022/01/07 02:55:17;;;;;;;;;;;;;;;;;;5035882;28;19920;-77
2022/01/07 02:57:44;;;;;;;;;;;;;;;;;;5036017;28;19944;-79
2022/01/07 03:00:10;;;;;;;;;;;;;;;;;;5035864;28;19913;-78
2022/01/07 03:02:38;;;;;;;;;;;;;;;;;;5042853;28;19948;-79
2022/01/07 03:05:05;;;;;;;;;;;;;;;;;;5015868;28;19995;-80
2022/01/07 03:07:31;;;;;;;;;;;;;;;;;;5025613;28;20281;-79
2022/01/07 03:09:59;;;;;;;;;;;;;;;;;;5035484;28;19938;-80
2022/01/07 03:12:24;;;;;;;;;;;;;;;;;;5034524;28;19917;-82
2022/01/07 03:14:49;;;;;;;;;;;;;;;;;;5036135;28;19913;-79
2022/01/07 03:17:15;;;;;;;;;;;;;;;;;;5035544;28;20243;-80
2022/01/07 03:19:40;;;;;;;;;;;;;;;;;;5035681;28;19921;-80
2022/01/07 03:22:05;;;;;;;;;;;;;;;;;;5035541;28;19921;-81
2022/01/07 03:24:30;;;;;;;;;;;;;;;;;;5035528;28;19925;-80
2022/01/07 03:26:55;;;;;;;;;;;;;;;;;;5031838;28;19913;-79
2022/01/07 03:29:21;;;;;;;;;;;;;;;;;;5032735;28;19917;-82
2022/01/07 03:31:46;;;;;;;;;;;;;;;;;;5034340;28;19924;-82
2022/01/07 03:34:11;;;;;;;;;;;;;;;;;;5035461;28;20008;-82
2022/01/07 03:36:36;;;;;;;;;;;;;;;;;;5035088;28;20015;-82
2022/01/07 03:39:03;;;;;;;;;;;;;;;;;;5035124;28;19927;-80
2022/01/07 03:41:28;;;;;;;;;;;;;;;;;;5035486;28;19921;-83
2022/01/07 03:43:53;;;;;;;;;;;;;;;;;;5034886;28;20324;-84
2022/01/07 03:46:19;;;;;;;;;;;;;;;;;;5034197;28;19913;-85
2022/01/07 03:48:44;;;;;;;;;;;;;;;;;;5034493;28;19947;-80
2022/01/07 03:51:11;;;;;;;;;;;;;;;;;;5034537;28;19913;-84
2022/01/07 03:53:37;;;;;;;;;;;;;;;;;;5035132;28;19917;-81
2022/01/07 03:56:02;;;;;;;;;;;;;;;;;;5035090;28;20319;-84
2022/01/07 03:58:28;;;;;;;;;;;;;;;;;;5034556;28;20230;-83
2022/01/07 04:00:53;;;;;;;;;;;;;;;;;;5034996;28;19913;-82
2022/01/07 04:03:18;;;;;;;;;;;;;;;;;;5035117;28;19932;-87
2022/01/07 04:05:43;;;;;;;;;;;;;;;;;;5021699;28;19921;-86
2022/01/07 04:08:11;;;;;;;;;;;;;;;;;;5034208;28;19968;-86
2022/01/07 04:10:37;;;;;;;;;;;;;;;;;;5034025;28;20453;-86
2022/01/07 04:13:04;;;;;;;;;;;;;;;;;;5034865;28;20024;-83
2022/01/07 04:15:30;;;;;;;;;;;;;;;;;;5034640;28;19913;-79
2022/01/07 04:17:55;;;;;;;;;;;;;;;;;;5035034;28;20431;-83
2022/01/07 04:20:25;;;;;;;;;;;;;;;;;;5035012;28;19932;-82
2022/01/07 04:22:50;;;;;;;;;;;;;;;;;;5034933;28;19983;-83
2022/01/07 04:25:19;;;;;;;;;;;;;;;;;;5034536;28;20350;-81
2022/01/07 04:27:53;;;;;;;;;;;;;;;;;;5033784;28;19988;-83
2022/01/07 04:30:22;;;;;;;;;;;;;;;;;;5034214;28;19936;-80
2022/01/07 04:32:52;;;;;;;;;;;;;;;;;;5033857;28;19972;-80
2022/01/07 04:35:17;;;;;;;;;;;;;;;;;;5034349;28;19932;-80
2022/01/07 04:37:45;;;;;;;;;;;;;;;;;;5034571;28;19913;-79
2022/01/07 04:40:11;;;;;;;;;;;;;;;;;;5016890;28;20365;-79
2022/01/07 04:42:37;;;;;;;;;;;;;;;;;;5050060;28;19913;-80
2022/01/07 04:45:03;;;;;;;;;;;;;;;;;;5034175;28;19913;-79
2022/01/07 04:47:28;;;;;;;;;;;;;;;;;;5033468;28;19921;-78
2022/01/07 04:49:55;;;;;;;;;;;;;;;;;;5032611;28;20011;-80
2022/01/07 04:52:22;;;;;;;;;;;;;;;;;;5034434;28;19913;-77
2022/01/07 04:54:47;;;;;;;;;;;;;;;;;;5034491;28;19917;-79
2022/01/07 04:57:13;;;;;;;;;;;;;;;;;;5037444;28;20253;-77
2022/01/07 04:59:38;;;;;;;;;;;;;;;;;;5037986;28;20269;-79
2022/01/07 05:02:03;;;;;;;;;;;;;;;;;;5037395;28;19913;-79
2022/01/07 05:04:28;;;;;;;;;;;;;;;;;;5049825;28;20397;-79
2022/01/07 05:06:54;;;;;;;;;;;;;;;;;;5036683;28;19917;-80
2022/01/07 05:09:19;;;;;;;;;;;;;;;;;;5038197;28;19917;-78
2022/01/07 05:11:48;;;;;;;;;;;;;;;;;;5037853;28;20004;-82
2022/01/07 05:14:14;;;;;;;;;;;;;;;;;;5038314;28;20032;-80
2022/01/07 05:16:42;;;;;;;;;;;;;;;;;;5038046;28;20362;-78
2022/01/07 05:19:08;;;;;;;;;;;;;;;;;;5037925;28;20516;-79
2022/01/07 05:21:35;;;;;;;;;;;;;;;;;;5038237;28;19928;-77
2022/01/07 05:24:01;;;;;;;;;;;;;;;;;;5037835;28;19917;-79
2022/01/07 05:26:26;;;;;;;;;;;;;;;;;;5037258;28;19917;-78
2022/01/07 05:28:51;;;;;;;;;;;;;;;;;;5037845;28;20220;-77
2022/01/07 05:31:17;;;;;;;;;;;;;;;;;;5037681;28;19975;-77
2022/01/07 05:33:42;;;;;;;;;;;;;;;;;;5037806;28;19999;-80
2022/01/07 05:36:07;;;;;;;;;;;;;;;;;;5037410;28;19921;-77
2022/01/07 05:38:33;;;;;;;;;;;;;;;;;;5037594;28;20309;-78
2022/01/07 05:40:58;;;;;;;;;;;;;;;;;;5037622;28;19913;-78
2022/01/07 05:43:23;;;;;;;;;;;;;;;;;;5037221;28;20346;-80
2022/01/07 05:45:48;;;;;;;;;;;;;;;;;;5037303;28;19917;-79
2022/01/07 05:48:14;;;;;;;;;;;;;;;;;;5037500;28;20016;-80
2022/01/07 05:50:39;;;;;;;;;;;;;;;;;;5037442;28;19964;-80
2022/01/07 05:53:07;;;;;;;;;;;;;;;;;;5036236;28;19928;-81
2022/01/07 05:55:32;;;;;;;;;;;;;;;;;;5037827;28;19923;-81
2022/01/07 05:58:00;;;;;;;;;;;;;;;;;;5036430;28;20017;-84
2022/01/07 06:00:25;;;;;;;;;;;;;;;;;;5037632;28;19913;-82
2022/01/07 06:02:52;;;;;;;;;;;;;;;;;;5037167;28;19917;-83
2022/01/07 06:05:18;;;;;;;;;;;;;;;;;;5037346;28;19913;-84
2022/01/07 06:07:43;;;;;;;;;;;;;;;;;;5036647;28;19921;-84
2022/01/07 06:10:09;;;;;;;;;;;;;;;;;;5037444;28;20051;-85
2022/01/07 06:12:36;;;;;;;;;;;;;;;;;;5036612;28;19940;-85
2022/01/07 06:15:02;;;;;;;;;;;;;;;;;;5053099;28;19913;-89
2022/01/07 06:17:27;;;;;;;;;;;;;;;;;;5037266;28;19952;-85
2022/01/07 06:19:54;;;;;;;;;;;;;;;;;;5037226;28;20321;-86
2022/01/07 06:22:20;;;;;;;;;;;;;;;;;;5037013;28;19917;-88
2022/01/07 06:24:45;;;;;;;;;;;;;;;;;;5037063;28;19928;-88
2022/01/07 06:27:10;;;;;;;;;;;;;;;;;;5031675;28;19936;-86
2022/01/07 06:29:37;;;;;;;;;;;;;;;;;;5025094;28;19927;-82
2022/01/07 06:32:02;;;;;;;;;;;;;;;;;;5037114;28;20488;-86
2022/01/07 06:34:28;;;;;;;;;;;;;;;;;;5037347;28;19964;-81
2022/01/07 06:36:53;;;;;;;;;;;;;;;;;;5036889;28;19971;-85
2022/01/07 06:39:19;;;;;;;;;;;;;;;;;;5036555;28;19940;-83
2022/01/07 06:41:46;;;;;;;;;;;;;;;;;;5037190;28;19948;-84
2022/01/07 06:44:12;;;;;;;;;;;;;;;;;;5037636;28;19913;-82
2022/01/07 06:46:37;;;;;;;;;;;;;;;;;;5035597;28;19970;-80
2022/01/07 06:49:03;;;;;;;;;;;;;;;;;;5036323;28;19917;-82
2022/01/07 06:51:28;;;;;;;;;;;;;;;;;;5036635;28;20322;-85
2022/01/07 06:53:55;;;;;;;;;;;;;;;;;;5035824;28;19913;-86
2022/01/07 06:56:23;;;;;;;;;;;;;;;;;;5036265;28;19925;-81
2022/01/07 06:58:49;;;;;;;;;;;;;;;;;;5036222;28;19928;-81
2022/01/07 07:01:14;;;;;;;;;;;;;;;;;;5036013;28;19917;-81
2022/01/07 07:03:42;;;;;;;;;;;;;;;;;;5035885;28;19971;-81
2022/01/07 07:06:08;;;;;;;;;;;;;;;;;;5018863;28;20216;-78
2022/01/07 07:08:33;;;;;;;;;;;;;;;;;;5036410;28;19917;-79
2022/01/07 07:11:01;;;;;;;;;;;;;;;;;;5035977;28;19921;-80
2022/01/07 07:13:26;;;;;;;;;;;;;;;;;;5036505;28;19992;-85
2022/01/07 07:15:51;;;;;;;;;;;;;;;;;;5036053;28;20007;-78
2022/01/07 07:18:17;;;;;;;;;;;;;;;;;;5034652;28;19917;-81
2022/01/07 07:20:42;;;;;;;;;;;;;;;;;;5035620;28;19917;-78
2022/01/07 07:23:08;;;;;;;;;;;;;;;;;;5031843;28;19917;-80
2022/01/07 07:25:33;;;;;;;;;;;;;;;;;;5021506;28;19928;-80
2022/01/07 07:27:58;;;;;;;;;;;;;;;;;;5032202;28;19963;-80
2022/01/07 07:30:25;;;;;;;;;;;;;;;;;;5034808;28;20227;-79
2022/01/07 07:32:53;;;;;;;;;;;;;;;;;;5034844;28;19952;-80
2022/01/07 07:37:47;;;;;;;;;;;;;;;;;;5035632;28;19913;-78
2022/01/07 07:40:12;;;;;;;;;;;;;;;;;;5034315;28;19917;-78
2022/01/07 07:42:38;;;;;;;;;;;;;;;;;;5035964;28;19978;-78
2022/01/07 07:45:04;;;;;;;;;;;;;;;;;;5035240;28;19924;-79
2022/01/07 07:47:29;;;;;;;;;;;;;;;;;;5035466;28;19917;-79
2022/01/07 07:49:55;;;;;;;;;;;;;;;;;;5036887;28;20235;-78
2022/01/07 07:52:20;;;;;;;;;;;;;;;;;;5036715;28;20234;-78
2022/01/07 07:54:45;;;;;;;;;;;;;;;;;;5035990;28;19913;-79
2022/01/07 07:57:10;;;;;;;;;;;;;;;;;;5028551;28;19976;-79
2022/01/07 07:59:38;;;;;;;;;;;;;;;;;;5020442;28;19917;-79
2022/01/07 08:02:06;;;;;;;;;;;;;;;;;;5036980;28;20037;-81
2022/01/07 08:04:31;;;;;;;;;;;;;;;;;;5037180;28;19912;-80
2022/01/07 08:06:57;;;;;;;;;;;;;;;;;;5037237;28;19923;-80
2022/01/07 08:09:23;;;;;;;;;;;;;;;;;;5035869;28;19939;-80
2022/01/07 08:11:49;;;;;;;;;;;;;;;;;;5035251;28;19921;-78
2022/01/07 08:16:59;;;;;;;;;;;;;;;;;;5035150;28;20292;-78
2022/01/07 08:19:25;;;;;;;;;;;;;;;;;;5032173;28;19917;-77
2022/01/07 08:21:52;;;;;;;;;;;;;;;;;;5034955;28;19928;-77
2022/01/07 08:24:17;;;;;;;;;;;;;;;;;;5030294;28;20347;-78
2022/01/07 08:26:42;;;;;;;;;;;;;;;;;;5016592;28;19917;-79
2022/01/07 08:29:10;;;;;;;;;;;;;;;;;;5033862;28;19925;-83
2022/01/07 08:36:51;;;;;;;;;;;;;;;;;;5026770;28;19979;-79
2022/01/07 08:39:16;;;;;;;;;;;;;;;;;;5030248;28;20309;-80
2022/01/07 08:41:42;;;;;;;;;;;;;;;;;;5034193;28;20342;-79
2022/01/07 08:44:07;;;;;;;;;;;;;;;;;;5034746;28;19928;-78
2022/01/07 08:46:33;;;;;;;;;;;;;;;;;;5026011;28;19917;-77
2022/01/07 08:48:58;;;;;;;;;;;;;;;;;;5034340;28;20369;-77
2022/01/07 08:51:23;;;;;;;;;;;;;;;;;;5033562;28;19913;-76
2022/01/07 08:53:49;;;;;;;;;;;;;;;;;;5034376;28;19928;-78
2022/01/07 08:56:16;;;;;;;;;;;;;;;;;;5034590;28;19913;-81
2022/01/07 08:58:46;;;;;;;;;;;;;;;;;;5033379;28;19928;-77
2022/01/07 09:01:12;;;;;;;;;;;;;;;;;;5034496;28;19913;-76
2022/01/07 09:03:37;;;;;;;;;;;;;;;;;;5034153;28;20354;-76
2022/01/07 09:06:02;;;;;;;;;;;;;;;;;;5050015;28;20239;-78
2022/01/07 09:08:31;;;;;;;;;;;;;;;;;;5034409;28;19918;-77
2022/01/07 09:10:56;;;;;;;;;;;;;;;;;;5025373;28;19917;-77
2022/01/07 09:13:21;;;;;;;;;;;;;;;;;;5033252;28;19917;-78
2022/01/07 09:15:46;;;;;;;;;;;;;;;;;;5034348;28;19917;-77
2022/01/07 09:18:12;;;;;;;;;;;;;;;;;;5034652;28;19996;-78
2022/01/07 09:20:43;;;;;;;;;;;;;;;;;;5034061;28;19974;-76
2022/01/07 09:23:08;;;;;;;;;;;;;;;;;;5033788;28;19960;-76
2022/01/07 09:25:33;;;;;;;;;;;;;;;;;;5034835;28;19913;-77
2022/01/07 09:27:59;;;;;;;;;;;;;;;;;;5036904;28;19930;-76
2022/01/07 09:30:24;;;;;;;;;;;;;;;;;;5016612;28;19932;-75
2022/01/07 09:32:49;;;;;;;;;;;;;;;;;;5033839;28;19928;-77
2022/01/07 09:35:16;;;;;;;;;;;;;;;;;;5034877;28;19937;-78
2022/01/07 09:37:41;;;;;;;;;;;;;;;;;;5033779;28;20347;-77
2022/01/07 09:40:06;;;;;;;;;;;;;;;;;;5013286;28;19932;-76
2022/01/07 09:42:32;;;;;;;;;;;;;;;;;;5019573;28;19976;-76
2022/01/07 09:44:57;;;;;;;;;;;;;;;;;;5034487;28;20324;-79
2022/01/07 09:47:23;;;;;;;;;;;;;;;;;;5037636;28;19987;-78
2022/01/07 09:49:48;;;;;;;;;;;;;;;;;;5016905;28;19931;-77
2022/01/07 09:52:13;;;;;;;;;;;;;;;;;;5020035;28;19928;-77
2022/01/07 09:54:39;;;;;;;;;;;;;;;;;;5024369;28;20000;-77
2022/01/07 09:57:06;;;;;;;;;;;;;;;;;;5017852;28;19913;-78
2022/01/07 09:59:31;;;;;;;;;;;;;;;;;;5006733;28;19971;-77
2022/01/07 10:01:58;;;;;;;;;;;;;;;;;;5037456;28;19920;-76
2022/01/07 10:04:33;;;;;;;;;;;;;;;;;;5031965;28;19944;-77
2022/01/07 10:07:17;;;;;;;;;;;;;;;;;;5037404;28;19928;-77
2022/01/07 10:09:57;;;;;;;;;;;;;;;;;;5034939;28;19917;-78
2022/01/07 10:12:24;;;;;;;;;;;;;;;;;;5031832;28;20008;-78
2022/01/07 10:15:08;;;;;;;;;;;;;;;;;;5036809;28;20334;-77
2022/01/07 10:17:33;;;;;;;;;;;;;;;;;;5028153;28;19917;-79
2022/01/07 10:20:00;;;;;;;;;;;;;;;;;;5023702;28;20239;-78
2022/01/07 10:22:26;;;;;;;;;;;;;;;;;;5019415;28;19950;-76
2022/01/07 10:24:55;;;;;;;;;;;;;;;;;;5050696;28;19920;-78
2022/01/07 10:27:20;;;;;;;;;;;;;;;;;;5045766;28;20235;-78
2022/01/07 10:29:48;;;;;;;;;;;;;;;;;;5051213;28;19996;-78
2022/01/07 10:32:19;;;;;;;;;;;;;;;;;;5051629;28;19913;-79
2022/01/07 10:35:07;;;;;;;;;;;;;;;;;;5057497;28;19917;-80
2022/01/07 10:37:33;;;;;;;;;;;;;;;;;;5036228;28;20311;-78
2022/01/07 10:39:59;;;;;;;;;;;;;;;;;;5039806;28;19947;-80
2022/01/07 10:42:24;;;;;;;;;;;;;;;;;;5042581;28;19913;-78
2022/01/07 10:44:59;;;;;;;;;;;;;;;;;;5030458;28;20220;-78
2022/01/07 10:47:25;;;;;;;;;;;;;;;;;;5037182;28;19917;-79
2022/01/07 10:49:50;;;;;;;;;;;;;;;;;;5036974;28;20368;-78
2022/01/07 10:52:22;;;;;;;;;;;;;;;;;;5030231;28;19948;-78
2022/01/07 10:55:06;;;;;;;;;;;;;;;;;;5017131;28;19917;-79
2022/01/07 10:57:38;;;;;;;;;;;;;;;;;;5035014;28;19927;-81
2022/01/07 11:00:04;;;;;;;;;;;;;;;;;;5036211;28;19917;-78
2022/01/07 11:02:39;;;;;;;;;;;;;;;;;;5033103;28;19935;-78
2022/01/07 11:05:07;;;;;;;;;;;;;;;;;;5046291;28;19930;-80
2022/01/07 11:07:32;;;;;;;;;;;;;;;;;;5034523;28;19917;-79
2022/01/07 11:09:58;;;;;;;;;;;;;;;;;;5035020;28;20050;-78
2022/01/07 11:12:35;;;;;;;;;;;;;;;;;;5026294;28;19917;-78
2022/01/07 11:15:01;;;;;;;;;;;;;;;;;;5035036;28;20044;-80
2022/01/07 11:17:27;;;;;;;;;;;;;;;;;;5035188;28;20004;-79
2022/01/07 11:19:55;;;;;;;;;;;;;;;;;;5035797;28;19921;-79
2022/01/07 11:22:22;;;;;;;;;;;;;;;;;;5036046;28;19913;-81
2022/01/07 11:24:50;;;;;;;;;;;;;;;;;;5048403;28;19936;-78
2022/01/07 11:27:20;;;;;;;;;;;;;;;;;;5035697;28;19913;-80
2022/01/07 11:29:55;;;;;;;;;;;;;;;;;;5047646;28;19975;-78
2022/01/07 11:32:26;;;;;;;;;;;;;;;;;;5029301;28;19917;-78
2022/01/07 11:34:52;;;;;;;;;;;;;;;;;;5032604;28;19928;-78
2022/01/07 11:37:36;;;;;;;;;;;;;;;;;;5028047;28;19917;-78
2022/01/07 11:40:02;;;;;;;;;;;;;;;;;;5033655;28;20285;-77
2022/01/07 11:42:39;;;;;;;;;;;;;;;;;;5035226;28;19917;-76
2022/01/07 11:45:26;;;;;;;;;;;;;;;;;;5033670;28;19936;-77
2022/01/07 11:47:51;;;;;;;;;;;;;;;;;;5033646;28;19917;-76
2022/01/07 11:50:18;;;;;;;;;;;;;;;;;;5034361;28;21369;-77
2022/01/07 11:52:55;;;;;;;;;;;;;;;;;;5031927;28;19920;-78
2022/01/07 11:55:23;;;;;;;;;;;;;;;;;;5034056;28;19921;-74
2022/01/07 11:57:54;;;;;;;;;;;;;;;;;;5031419;28;19917;-77
2022/01/07 12:00:38;;;;;;;;;;;;;;;;;;5030385;28;19925;-78
2022/01/07 12:03:06;;;;;;;;;;;;;;;;;;5042016;28;20254;-75
2022/01/07 12:05:34;;;;;;;;;;;;;;;;;;5040424;28;20008;-75
2022/01/07 12:08:01;;;;;;;;;;;;;;;;;;5039812;28;19928;-75
2022/01/07 12:10:27;;;;;;;;;;;;;;;;;;5041656;28;19917;-75
2022/01/07 12:13:03;;;;;;;;;;;;;;;;;;5043009;28;20476;-75
2022/01/07 12:15:29;;;;;;;;;;;;;;;;;;5048936;28;19913;-76
2022/01/07 12:17:54;;;;;;;;;;;;;;;;;;5035376;28;19970;-76
2022/01/07 12:20:35;;;;;;;;;;;;;;;;;;5022273;28;20491;-78
2022/01/07 12:23:00;;;;;;;;;;;;;;;;;;5032291;28;19924;-76
2022/01/07 12:25:35;;;;;;;;;;;;;;;;;;5032020;28;20262;-76
2022/01/07 12:28:01;;;;;;;;;;;;;;;;;;5029930;28;19996;-76
2022/01/07 12:30:29;;;;;;;;;;;;;;;;;;5048948;28;19917;-75
2022/01/07 12:32:59;;;;;;;;;;;;;;;;;;5048131;28;19947;-77
2022/01/07 12:35:28;;;;;;;;;;;;;;;;;;5015780;28;20343;-75
2022/01/07 12:38:14;;;;;;;;;;;;;;;;;;5033026;28;19937;-77
2022/01/07 12:40:39;;;;;;;;;;;;;;;;;;5033556;28;19940;-76
2022/01/07 12:43:05;;;;;;;;;;;;;;;;;;5032636;28;20350;-75
2022/01/07 12:45:31;;;;;;;;;;;;;;;;;;5033878;28;19917;-76
2022/01/07 12:47:57;;;;;;;;;;;;;;;;;;5033685;28;19921;-76
2022/01/07 12:50:24;;;;;;;;;;;;;;;;;;5028750;28;19927;-75
2022/01/07 12:52:49;;;;;;;;;;;;;;;;;;5033574;28;20330;-76
2022/01/07 12:55:18;;;;;;;;;;;;;;;;;;5033818;28;19960;-75
2022/01/07 12:57:57;;;;;;;;;;;;;;;;;;5032972;28;19931;-76
2022/01/07 13:00:23;;;;;;;;;;;;;;;;;;5033264;28;19925;-75
2022/01/07 13:02:51;;;;;;;;;;;;;;;;;;5027676;28;20266;-75
2022/01/07 13:05:20;;;;;;;;;;;;;;;;;;5049672;28;19921;-76
2022/01/07 13:07:52;;;;;;;;;;;;;;;;;;5034234;28;19953;-76
2022/01/07 13:10:20;;;;;;;;;;;;;;;;;;5040386;28;20361;-76
2022/01/07 13:12:57;;;;;;;;;;;;;;;;;;5033551;28;19928;-77
2022/01/07 13:15:41;;;;;;;;;;;;;;;;;;5049207;28;19917;-75
2022/01/07 13:18:35;;;;;;;;;;;;;;;;;;5037105;28;20004;-75
2022/01/07 13:21:13;;;;;;;;;;;;;;;;;;5036793;28;19928;-76
2022/01/07 13:23:48;;;;;;;;;;;;;;;;;;5037202;28;20354;-76
2022/01/07 13:26:14;;;;;;;;;;;;;;;;;;5033831;28;19917;-75
2022/01/07 13:28:44;;;;;;;;;;;;;;;;;;5018191;28;19914;-77
2022/01/07 13:31:10;;;;;;;;;;;;;;;;;;5034749;28;19917;-81
2022/01/07 13:33:36;;;;;;;;;;;;;;;;;;5038077;28;19917;-82
2022/01/07 13:36:06;;;;;;;;;;;;;;;;;;5038401;28;20234;-81
2022/01/07 13:38:37;;;;;;;;;;;;;;;;;;5037441;28;19917;-81
2022/01/07 13:41:08;;;;;;;;;;;;;;;;;;5036428;28;19952;-82
2022/01/07 13:43:34;;;;;;;;;;;;;;;;;;5038066;28;19948;-81
2022/01/07 13:46:06;;;;;;;;;;;;;;;;;;5037984;28;19975;-83
2022/01/07 13:48:32;;;;;;;;;;;;;;;;;;5036972;28;20300;-81
2022/01/07 13:50:59;;;;;;;;;;;;;;;;;;5036780;28;19999;-80
2022/01/07 13:53:27;;;;;;;;;;;;;;;;;;5036824;28;19924;-79
2022/01/07 13:55:52;;;;;;;;;;;;;;;;;;5037860;28;20339;-79
2022/01/07 13:58:21;;;;;;;;;;;;;;;;;;5036916;28;19928;-79
2022/01/07 14:00:47;;;;;;;;;;;;;;;;;;5037296;28;20277;-77
2022/01/07 14:03:14;;;;;;;;;;;;;;;;;;5037606;28;20373;-77
2022/01/07 14:05:40;;;;;;;;;;;;;;;;;;5037572;28;19919;-78
2022/01/07 14:08:10;;;;;;;;;;;;;;;;;;5035627;28;19917;-78
2022/01/07 14:10:36;;;;;;;;;;;;;;;;;;5036654;28;19913;-81
2022/01/07 14:13:05;;;;;;;;;;;;;;;;;;5032814;28;20354;-88
2022/01/07 14:15:52;;;;;;;;;;;;;;;;;;5037668;28;19953;-80
2022/01/07 14:18:27;;;;;;;;;;;;;;;;;;5036973;28;19928;-85
2022/01/07 14:21:15;;;;;;;;;;;;;;;;;;5019524;28;20350;-86
2022/01/07 14:23:44;;;;;;;;;;;;;;;;;;5035580;28;20354;-87
2022/01/07 14:26:13;;;;;;;;;;;;;;;;;;5037510;28;20231;-85
2022/01/07 14:28:41;;;;;;;;;;;;;;;;;;5021121;28;19932;-85
2022/01/07 14:31:07;;;;;;;;;;;;;;;;;;5026458;28;20277;-84
2022/01/07 14:33:32;;;;;;;;;;;;;;;;;;5036171;28;19917;-80
2022/01/07 14:35:59;;;;;;;;;;;;;;;;;;5035120;28;19921;-82
2022/01/07 14:38:25;;;;;;;;;;;;;;;;;;5035497;28;20453;-83
2022/01/07 14:40:50;;;;;;;;;;;;;;;;;;5034563;28;19924;-82
2022/01/07 14:43:15;;;;;;;;;;;;;;;;;;5034899;28;19913;-83
2022/01/07 14:45:43;;;;;;;;;;;;;;;;;;5018228;28;19939;-82
2022/01/07 14:48:09;;;;;;;;;;;;;;;;;;5035100;28;20003;-82
2022/01/07 14:50:34;;;;;;;;;;;;;;;;;;5034128;28;20517;-82
2022/01/07 14:52:59;;;;;;;;;;;;;;;;;;5001016;28;19920;-82
2022/01/07 14:55:34;;;;;;;;;;;;;;;;;;5034139;28;19913;-81
2022/01/07 14:57:59;;;;;;;;;;;;;;;;;;5034086;28;19917;-79
2022/01/07 15:00:28;;;;;;;;;;;;;;;;;;5005727;28;20011;-77
2022/01/07 15:02:53;;;;;;;;;;;;;;;;;;5025856;28;19914;-77
2022/01/07 15:05:18;;;;;;;;;;;;;;;;;;5029644;28;20401;-77
2022/01/07 15:07:44;;;;;;;;;;;;;;;;;;5016433;28;19968;-76
2022/01/07 15:10:09;;;;;;;;;;;;;;;;;;5016473;28;19917;-77
2022/01/07 15:12:37;;;;;;;;;;;;;;;;;;5035060;28;20358;-76
2022/01/07 15:15:50;;;;;;;;;;;;;;;;;;5035476;28;19913;-77
2022/01/07 15:17:48;;;;;;;;;;;;;;;;;;5036106;28;20114;-77
2022/01/07 15:20:13;;;;;;;;;;;;;;;;;;5036146;28;19952;-77
2022/01/07 15:22:38;;;;;;;;;;;;;;;;;;5036008;28;19968;-77
2022/01/07 15:25:04;;;;;;;;;;;;;;;;;;5035127;28;19953;-77
2022/01/07 15:27:31;;;;;;;;;;;;;;;;;;5036180;28;19945;-77
2022/01/07 15:29:59;;;;;;;;;;;;;;;;;;5036007;28;19913;-77
2022/01/07 15:32:24;;;;;;;;;;;;;;;;;;5035199;28;19913;-76
2022/01/07 15:34:51;;;;;;;;;;;;;;;;;;5035477;28;19924;-77
2022/01/07 15:37:17;;;;;;;;;;;;;;;;;;5033242;28;19964;-77
2022/01/07 15:39:43;;;;;;;;;;;;;;;;;;5033772;28;19949;-77
2022/01/07 15:42:09;;;;;;;;;;;;;;;;;;5051207;28;19970;-76
2022/01/07 15:44:34;;;;;;;;;;;;;;;;;;5034096;28;19913;-77
2022/01/07 15:46:59;;;;;;;;;;;;;;;;;;5035246;28;19949;-77
2022/01/07 15:49:27;;;;;;;;;;;;;;;;;;5029972;28;19917;-77
2022/01/07 15:51:52;;;;;;;;;;;;;;;;;;5033439;28;19987;-75
2022/01/07 15:54:19;;;;;;;;;;;;;;;;;;5034889;28;20513;-77
2022/01/07 15:56:45;;;;;;;;;;;;;;;;;;5030188;28;19939;-77
2022/01/07 15:59:10;;;;;;;;;;;;;;;;;;5033048;28;20401;-77
2022/01/07 16:01:35;;;;;;;;;;;;;;;;;;5034488;28;19917;-77
2022/01/07 16:04:03;;;;;;;;;;;;;;;;;;5033699;28;20004;-77
2022/01/07 16:06:30;;;;;;;;;;;;;;;;;;5034108;28;19917;-76
2022/01/07 16:08:56;;;;;;;;;;;;;;;;;;5033588;28;20023;-77
2022/01/07 16:11:23;;;;;;;;;;;;;;;;;;5034467;28;20033;-77
2022/01/07 16:13:48;;;;;;;;;;;;;;;;;;5034248;28;20374;-77
2022/01/07 16:16:14;;;;;;;;;;;;;;;;;;5034672;28;19968;-77
2022/01/07 16:18:40;;;;;;;;;;;;;;;;;;5049499;28;19921;-77
2022/01/07 16:21:05;;;;;;;;;;;;;;;;;;5049058;28;19936;-78
2022/01/07 16:23:31;;;;;;;;;;;;;;;;;;5046263;28;19933;-79
2022/01/07 16:25:56;;;;;;;;;;;;;;;;;;5030200;28;20023;-77
2022/01/07 16:28:21;;;;;;;;;;;;;;;;;;5034571;28;19913;-77
2022/01/07 16:30:49;;;;;;;;;;;;;;;;;;5034041;28;20333;-76
2022/01/07 16:33:18;;;;;;;;;;;;;;;;;;5034137;28;19966;-76
2022/01/07 16:35:44;;;;;;;;;;;;;;;;;;5033541;28;19924;-75
2022/01/07 16:38:09;;;;;;;;;;;;;;;;;;5033239;28;19916;-76
2022/01/07 16:40:34;;;;;;;;;;;;;;;;;;5033476;28;19921;-76
2022/01/07 16:42:59;;;;;;;;;;;;;;;;;;5034574;28;20224;-77
2022/01/07 16:45:25;;;;;;;;;;;;;;;;;;5033948;28;19917;-77
2022/01/07 16:47:50;;;;;;;;;;;;;;;;;;5034039;28;19928;-79
2022/01/07 16:50:17;;;;;;;;;;;;;;;;;;5034198;28;20369;-77
2022/01/07 16:52:45;;;;;;;;;;;;;;;;;;5031472;28;19914;-77
2022/01/07 16:55:16;;;;;;;;;;;;;;;;;;5040733;28;20008;-77
2022/01/07 16:57:41;;;;;;;;;;;;;;;;;;5054790;28;19917;-80